createdAt,value
2023-01-30T00:00:01.107Z,24.00
2023-01-30T00:01:08.685Z,23.00
2023-01-30T00:02:11.383Z,21.50
2023-01-30T00:03:14.009Z,21.50
2023-01-30T00:04:17.418Z,21.00
2023-01-30T00:05:20.295Z,21.50
2023-01-30T00:06:23.345Z,20.00
2023-01-30T00:07:26.001Z,19.00
2023-01-30T00:08:28.704Z,21.00
2023-01-30T00:09:33.594Z,21.50
2023-01-30T00:10:36.256Z,20.00
2023-01-30T00:11:38.896Z,21.50
2023-01-30T00:12:41.908Z,20.50
2023-01-30T00:13:45.343Z,21.00
2023-01-30T00:14:47.979Z,18.75
2023-01-30T00:15:50.660Z,18.50
2023-01-30T00:16:53.298Z,18.50
2023-01-30T00:17:55.903Z,19.00
2023-01-30T00:19:00.529Z,18.50
2023-01-30T00:20:03.690Z,20.00
2023-01-30T00:21:08.845Z,19.00
2023-01-30T00:22:11.470Z,20.00
2023-01-30T00:23:14.076Z,20.00
2023-01-30T00:24:16.823Z,21.00
2023-01-30T00:25:19.919Z,19.25
2023-01-30T00:26:22.699Z,19.00
2023-01-30T00:27:25.390Z,19.00
2023-01-30T00:28:28.641Z,19.00
2023-01-30T00:29:33.582Z,19.00
2023-01-30T00:30:36.271Z,19.00
2023-01-30T00:31:39.023Z,18.00
2023-01-30T00:32:43.432Z,18.50
2023-01-30T00:33:46.104Z,18.00
2023-01-30T00:34:48.780Z,18.50
2023-01-30T00:35:55.046Z,19.00
2023-01-30T00:37:07.769Z,20.25
2023-01-30T00:38:11.452Z,18.00
2023-01-30T00:39:14.109Z,16.00
2023-01-30T00:40:17.359Z,18.00
2023-01-30T00:41:20.213Z,18.00
2023-01-30T00:42:41.126Z,20.75
2023-01-30T00:44:02.121Z,20.00
2023-01-30T00:45:23.475Z,20.25
2023-01-30T00:46:48.211Z,21.00
2023-01-30T00:47:50.962Z,20.00
2023-01-30T00:48:53.584Z,21.00
2023-01-30T00:49:56.258Z,21.00
2023-01-30T00:50:59.246Z,21.00
2023-01-30T00:52:02.164Z,18.00
2023-01-30T00:53:04.891Z,18.00
2023-01-30T00:54:07.819Z,19.00
2023-01-30T00:55:10.787Z,19.50
2023-01-30T00:56:13.414Z,20.00
2023-01-30T00:57:16.014Z,18.00
2023-01-30T00:58:19.018Z,18.00
2023-01-30T00:59:22.983Z,17.75
2023-01-30T01:00:25.605Z,16.25
2023-01-30T01:01:30.791Z,17.50
2023-01-30T01:02:33.454Z,17.75
2023-01-30T01:03:36.175Z,18.00
2023-01-30T01:04:44.344Z,18.00
2023-01-30T01:05:47.113Z,16.25
2023-01-30T01:06:52.289Z,18.00
2023-01-30T01:07:55.467Z,19.00
2023-01-30T01:08:58.100Z,18.00
2023-01-30T01:10:00.696Z,19.00
2023-01-30T01:11:03.696Z,21.00
2023-01-30T01:12:07.080Z,19.25
2023-01-30T01:13:11.498Z,18.00
2023-01-30T01:14:14.125Z,17.50
2023-01-30T01:15:17.205Z,18.00
2023-01-30T01:16:23.095Z,18.00
2023-01-30T01:17:25.790Z,20.00
2023-01-30T01:18:28.460Z,18.00
2023-01-30T01:19:31.336Z,18.00
2023-01-30T01:20:34.138Z,18.00
2023-01-30T01:21:36.759Z,18.00
2023-01-30T01:22:39.498Z,19.00
2023-01-30T01:23:42.701Z,19.00
2023-01-30T01:24:47.101Z,18.00
2023-01-30T01:25:49.711Z,19.75
2023-01-30T01:26:52.326Z,18.00
2023-01-30T01:27:56.043Z,18.00
2023-01-30T01:28:59.919Z,17.25
2023-01-30T01:30:02.666Z,18.75
2023-01-30T01:31:12.969Z,18.00
2023-01-30T01:32:15.665Z,20.00
2023-01-30T01:33:20.860Z,18.00
2023-01-30T01:34:23.493Z,18.00
2023-01-30T01:35:26.121Z,18.00
2023-01-30T01:36:52.187Z,19.75
2023-01-30T01:37:55.384Z,19.00
2023-01-30T01:38:58.045Z,19.50
2023-01-30T01:40:19.146Z,18.00
2023-01-30T01:41:23.828Z,21.00
2023-01-30T01:42:29.789Z,21.00
2023-01-30T01:43:35.031Z,21.00
2023-01-30T01:45:15.453Z,22.50
2023-01-30T01:46:25.019Z,21.00
2023-01-30T01:47:28.230Z,20.75
2023-01-30T01:48:53.335Z,18.75
2023-01-30T01:49:58.856Z,17.00
2023-01-30T01:51:10.116Z,19.50
2023-01-30T01:52:16.983Z,19.75
2023-01-30T01:53:24.146Z,17.50
2023-01-30T01:54:53.723Z,18.50
2023-01-30T01:56:00.423Z,18.00
2023-01-30T01:57:15.151Z,19.00
2023-01-30T01:58:47.058Z,19.25
2023-01-30T01:59:57.816Z,18.25
2023-01-30T02:01:01.315Z,18.50
2023-01-30T02:02:09.605Z,17.00
2023-01-30T02:03:18.626Z,18.00
2023-01-30T02:04:44.269Z,20.00
2023-01-30T02:05:51.015Z,19.00
2023-01-30T02:06:53.706Z,17.75
2023-01-30T02:08:05.925Z,17.50
2023-01-30T02:09:11.323Z,19.00
2023-01-30T02:10:23.265Z,19.25
2023-01-30T02:11:53.705Z,17.00
2023-01-30T02:12:56.456Z,18.75
2023-01-30T02:14:01.524Z,18.00
2023-01-30T02:15:05.861Z,18.00
2023-01-30T02:16:09.497Z,19.00
2023-01-30T02:17:12.176Z,18.00
2023-01-30T02:18:16.431Z,19.00
2023-01-30T02:19:40.523Z,17.00
2023-01-30T02:20:43.188Z,17.00
2023-01-30T02:22:08.859Z,20.00
2023-01-30T02:23:48.391Z,18.25
2023-01-30T02:25:22.762Z,17.00
2023-01-30T02:27:02.447Z,18.00
2023-01-30T02:28:26.005Z,17.25
2023-01-30T02:29:37.648Z,19.00
2023-01-30T02:31:07.879Z,18.00
2023-01-30T02:32:32.075Z,17.00
2023-01-30T02:33:59.481Z,16.00
2023-01-30T02:35:19.604Z,16.00
2023-01-30T02:36:41.096Z,15.75
2023-01-30T02:38:19.775Z,15.25
2023-01-30T02:39:42.333Z,16.50
2023-01-30T02:41:17.564Z,16.50
2023-01-30T02:42:35.708Z,18.75
2023-01-30T02:44:07.256Z,18.00
2023-01-30T02:45:31.284Z,16.50
2023-01-30T02:46:46.270Z,16.50
2023-01-30T02:48:01.305Z,18.00
2023-01-30T02:49:06.689Z,18.00
2023-01-30T02:50:25.679Z,16.75
2023-01-30T02:51:34.968Z,16.00
2023-01-30T02:52:38.410Z,18.00
2023-01-30T02:53:43.188Z,18.00
2023-01-30T02:54:45.825Z,17.00
2023-01-30T02:55:48.472Z,18.00
2023-01-30T02:56:58.120Z,18.00
2023-01-30T02:58:02.347Z,19.00
2023-01-30T02:59:11.312Z,19.00
2023-01-30T03:00:17.119Z,17.00
2023-01-30T03:01:52.858Z,17.25
2023-01-30T03:03:08.632Z,18.00
2023-01-30T03:04:46.550Z,18.00
2023-01-30T03:05:51.932Z,16.00
2023-01-30T03:07:01.942Z,17.00
2023-01-30T03:08:04.913Z,17.00
2023-01-30T03:09:41.093Z,18.00
2023-01-30T03:11:00.893Z,15.25
2023-01-30T03:12:44.977Z,15.25
2023-01-30T03:14:13.868Z,17.00
2023-01-30T03:15:58.161Z,17.00
2023-01-30T03:17:05.425Z,16.25
2023-01-30T03:18:10.615Z,16.50
2023-01-30T03:19:14.320Z,17.75
2023-01-30T03:20:20.905Z,17.00
2023-01-30T03:21:23.515Z,17.00
2023-01-30T03:22:26.363Z,18.25
2023-01-30T03:23:29.004Z,19.50
2023-01-30T03:24:31.679Z,19.00
2023-01-30T03:25:36.366Z,18.00
2023-01-30T03:26:45.282Z,17.00
2023-01-30T03:27:48.914Z,17.00
2023-01-30T03:28:55.704Z,17.75
2023-01-30T03:29:58.279Z,18.00
2023-01-30T03:31:00.986Z,17.00
2023-01-30T03:32:03.816Z,19.50
2023-01-30T03:33:17.110Z,19.00
2023-01-30T03:34:22.058Z,18.00
2023-01-30T03:35:25.130Z,19.00
2023-01-30T03:36:28.038Z,18.75
2023-01-30T03:37:30.945Z,21.00
2023-01-30T03:38:35.618Z,21.00
2023-01-30T03:39:38.310Z,21.00
2023-01-30T03:40:40.925Z,21.00
2023-01-30T03:41:43.772Z,20.00
2023-01-30T03:42:46.837Z,19.50
2023-01-30T03:43:49.514Z,19.75
2023-01-30T03:44:52.162Z,20.25
2023-01-30T03:45:54.891Z,20.00
2023-01-30T03:46:57.518Z,21.00
2023-01-30T03:48:00.166Z,20.00
2023-01-30T03:49:02.924Z,20.00
2023-01-30T03:50:05.912Z,20.00
2023-01-30T03:51:11.078Z,19.50
2023-01-30T03:52:13.746Z,19.50
2023-01-30T03:53:16.372Z,20.00
2023-01-30T03:54:19.014Z,19.00
2023-01-30T03:55:21.903Z,20.00
2023-01-30T03:56:24.626Z,20.00
2023-01-30T03:57:27.305Z,19.50
2023-01-30T03:58:29.979Z,21.00
2023-01-30T03:59:35.108Z,19.50
2023-01-30T04:00:38.128Z,17.00
2023-01-30T04:01:40.867Z,19.00
2023-01-30T04:02:43.659Z,19.00
2023-01-30T04:03:46.343Z,18.00
2023-01-30T04:04:49.082Z,19.50
2023-01-30T04:05:51.739Z,20.25
2023-01-30T04:06:54.377Z,20.50
2023-01-30T04:08:00.669Z,19.00
2023-01-30T04:09:03.425Z,18.00
2023-01-30T04:10:06.514Z,19.50
2023-01-30T04:11:12.207Z,21.00
2023-01-30T04:12:15.243Z,22.00
2023-01-30T04:13:17.909Z,22.00
2023-01-30T04:14:20.788Z,22.75
2023-01-30T04:15:23.517Z,23.00
2023-01-30T04:16:28.226Z,23.00
2023-01-30T04:17:30.932Z,22.00
2023-01-30T04:18:34.822Z,23.00
2023-01-30T04:19:37.425Z,24.50
2023-01-30T04:20:40.173Z,24.50
2023-01-30T04:21:45.293Z,24.00
2023-01-30T04:22:50.507Z,24.25
2023-01-30T04:23:53.171Z,24.00
2023-01-30T04:24:56.863Z,24.50
2023-01-30T04:25:59.562Z,25.00
2023-01-30T04:27:02.252Z,23.75
2023-01-30T04:28:05.039Z,23.00
2023-01-30T04:29:10.082Z,22.00
2023-01-30T04:30:15.145Z,23.75
2023-01-30T04:31:17.873Z,24.50
2023-01-30T04:32:23.094Z,24.00
2023-01-30T04:33:27.838Z,24.00
2023-01-30T04:34:30.458Z,24.50
2023-01-30T04:35:33.109Z,23.00
2023-01-30T04:36:35.870Z,23.00
2023-01-30T04:37:41.174Z,23.00
2023-01-30T04:38:44.051Z,23.50
2023-01-30T04:39:46.671Z,27.25
2023-01-30T04:40:53.799Z,30.00
2023-01-30T04:41:56.381Z,29.00
2023-01-30T04:42:58.987Z,27.00
2023-01-30T04:44:01.657Z,27.00
2023-01-30T04:45:04.534Z,25.00
2023-01-30T04:46:07.185Z,24.50
2023-01-30T04:47:09.835Z,24.50
2023-01-30T04:48:12.665Z,23.00
2023-01-30T04:49:15.309Z,22.25
2023-01-30T04:50:18.073Z,24.50
2023-01-30T04:51:20.783Z,23.75
2023-01-30T04:52:24.591Z,23.00
2023-01-30T04:53:27.397Z,23.00
2023-01-30T04:54:30.061Z,22.50
2023-01-30T04:55:32.857Z,23.00
2023-01-30T04:56:36.607Z,24.00
2023-01-30T04:57:39.271Z,23.00
2023-01-30T04:58:42.000Z,22.00
2023-01-30T04:59:44.667Z,22.00
2023-01-30T05:00:47.979Z,23.00
2023-01-30T05:01:50.724Z,22.00
2023-01-30T05:02:54.127Z,22.00
2023-01-30T05:03:57.092Z,23.00
2023-01-30T05:04:59.932Z,22.00
2023-01-30T05:06:03.789Z,22.00
2023-01-30T05:07:06.431Z,23.00
2023-01-30T05:08:09.143Z,22.00
2023-01-30T05:09:12.951Z,23.00
2023-01-30T05:10:17.958Z,22.00
2023-01-30T05:11:21.700Z,20.00
2023-01-30T05:12:24.325Z,21.00
2023-01-30T05:13:26.961Z,21.00
2023-01-30T05:14:29.623Z,22.00
2023-01-30T05:15:33.062Z,23.50
2023-01-30T05:16:37.473Z,22.00
2023-01-30T05:17:44.590Z,23.00
2023-01-30T05:18:47.431Z,24.00
2023-01-30T05:19:50.059Z,23.00
2023-01-30T05:20:52.698Z,22.00
2023-01-30T05:21:55.340Z,22.00
2023-01-30T05:22:58.068Z,23.00
2023-01-30T05:24:00.766Z,23.00
2023-01-30T05:25:03.456Z,22.50
2023-01-30T05:26:06.922Z,25.00
2023-01-30T05:27:11.578Z,26.75
2023-01-30T05:28:14.328Z,29.00
2023-01-30T05:29:16.981Z,29.50
2023-01-30T05:30:19.693Z,27.00
2023-01-30T05:31:22.555Z,26.50
2023-01-30T05:32:26.708Z,25.00
2023-01-30T05:33:29.729Z,24.50
2023-01-30T05:34:33.566Z,24.00
2023-01-30T05:35:36.279Z,23.50
2023-01-30T05:36:41.221Z,24.00
2023-01-30T05:37:43.853Z,23.75
2023-01-30T05:38:47.468Z,24.00
2023-01-30T05:39:50.131Z,25.00
2023-01-30T05:41:09.390Z,25.25
2023-01-30T05:42:12.047Z,25.25
2023-01-30T05:43:17.248Z,23.00
2023-01-30T05:44:19.908Z,24.00
2023-01-30T05:45:22.604Z,24.00
2023-01-30T05:46:25.361Z,24.00
2023-01-30T05:47:28.380Z,28.00
2023-01-30T05:48:33.985Z,31.00
2023-01-30T05:49:36.641Z,32.00
2023-01-30T05:50:39.370Z,30.50
2023-01-30T05:51:42.349Z,28.00
2023-01-30T05:52:44.996Z,27.00
2023-01-30T05:53:48.281Z,27.00
2023-01-30T05:54:53.504Z,27.00
2023-01-30T05:56:00.790Z,26.25
2023-01-30T05:57:03.487Z,27.75
2023-01-30T05:58:06.122Z,27.00
2023-01-30T05:59:12.171Z,28.50
2023-01-30T06:00:15.518Z,29.00
2023-01-30T06:01:18.332Z,30.00
2023-01-30T06:02:21.825Z,30.50
2023-01-30T06:03:24.569Z,32.50
2023-01-30T06:04:27.304Z,35.50
2023-01-30T06:05:32.415Z,35.00
2023-01-30T06:06:38.493Z,34.00
2023-01-30T06:07:41.164Z,31.50
2023-01-30T06:08:45.532Z,30.00
2023-01-30T06:09:48.170Z,28.00
2023-01-30T06:10:50.811Z,28.00
2023-01-30T06:11:54.114Z,27.00
2023-01-30T06:12:56.840Z,25.00
2023-01-30T06:14:02.050Z,24.50
2023-01-30T06:15:06.372Z,25.00
2023-01-30T06:16:10.618Z,25.00
2023-01-30T06:17:14.993Z,25.00
2023-01-30T06:18:17.835Z,25.00
2023-01-30T06:19:20.526Z,25.00
2023-01-30T06:20:23.296Z,25.00
2023-01-30T06:21:25.955Z,25.00
2023-01-30T06:22:28.639Z,27.00
2023-01-30T06:23:31.626Z,27.00
2023-01-30T06:24:34.312Z,29.50
2023-01-30T06:25:36.958Z,28.75
2023-01-30T06:26:39.718Z,29.50
2023-01-30T06:27:42.457Z,30.00
2023-01-30T06:28:45.368Z,29.00
2023-01-30T06:29:47.992Z,29.00
2023-01-30T06:30:53.790Z,28.00
2023-01-30T06:31:56.475Z,27.00
2023-01-30T06:32:59.192Z,27.00
2023-01-30T06:34:01.941Z,27.00
2023-01-30T06:35:08.021Z,27.00
2023-01-30T06:36:10.786Z,25.75
2023-01-30T06:37:13.398Z,27.00
2023-01-30T06:38:17.980Z,27.00
2023-01-30T06:39:23.145Z,28.00
2023-01-30T06:40:25.860Z,27.00
2023-01-30T06:41:28.498Z,27.00
2023-01-30T06:42:31.179Z,27.50
2023-01-30T06:43:33.827Z,27.00
2023-01-30T06:44:36.523Z,27.75
2023-01-30T06:45:40.573Z,27.00
2023-01-30T06:46:43.246Z,27.00
2023-01-30T06:47:58.322Z,27.00
2023-01-30T06:49:03.792Z,26.50
2023-01-30T06:50:06.475Z,27.00
2023-01-30T06:51:10.521Z,26.50
2023-01-30T06:52:15.945Z,26.00
2023-01-30T06:53:18.627Z,26.00
2023-01-30T06:54:21.308Z,27.00
2023-01-30T06:55:27.298Z,26.00
2023-01-30T06:56:29.965Z,25.50
2023-01-30T06:57:32.593Z,26.00
2023-01-30T06:58:35.283Z,27.50
2023-01-30T06:59:37.912Z,28.00
2023-01-30T07:00:44.039Z,28.00
2023-01-30T07:01:46.831Z,29.00
2023-01-30T07:02:51.507Z,30.00
2023-01-30T07:03:54.163Z,31.00
2023-01-30T07:04:56.920Z,32.50
2023-01-30T07:06:01.261Z,33.00
2023-01-30T07:07:04.652Z,34.25
2023-01-30T07:08:09.260Z,35.00
2023-01-30T07:09:11.899Z,37.00
2023-01-30T07:10:17.707Z,35.00
2023-01-30T07:11:20.510Z,36.00
2023-01-30T07:12:23.538Z,35.00
2023-01-30T07:13:26.168Z,35.50
2023-01-30T07:14:28.793Z,37.00
2023-01-30T07:15:32.303Z,35.50
2023-01-30T07:16:35.254Z,35.50
2023-01-30T07:17:37.928Z,37.25
2023-01-30T07:18:49.329Z,38.00
2023-01-30T07:19:51.978Z,38.00
2023-01-30T07:20:54.725Z,37.00
2023-01-30T07:21:59.151Z,41.00
2023-01-30T07:23:02.002Z,41.00
2023-01-30T07:24:11.382Z,41.00
2023-01-30T07:25:14.052Z,37.50
2023-01-30T07:26:16.799Z,36.00
2023-01-30T07:27:19.465Z,36.00
2023-01-30T07:28:22.163Z,36.00
2023-01-30T07:29:31.351Z,36.00
2023-01-30T07:30:37.036Z,36.00
2023-01-30T07:31:39.732Z,36.00
2023-01-30T07:32:42.450Z,36.50
2023-01-30T07:33:45.141Z,36.00
2023-01-30T07:34:55.375Z,36.50
2023-01-30T07:36:00.786Z,37.75
2023-01-30T07:37:03.410Z,39.00
2023-01-30T07:38:07.164Z,39.00
2023-01-30T07:39:12.373Z,37.00
2023-01-30T07:40:22.422Z,36.50
2023-01-30T07:41:25.053Z,36.00
2023-01-30T07:42:29.629Z,36.50
2023-01-30T07:43:32.328Z,37.00
2023-01-30T07:44:35.372Z,40.50
2023-01-30T07:45:53.449Z,44.75
2023-01-30T07:47:02.976Z,44.50
2023-01-30T07:48:05.882Z,45.00
2023-01-30T07:49:10.373Z,42.00
2023-01-30T07:50:13.050Z,41.00
2023-01-30T07:51:22.487Z,40.00
2023-01-30T07:52:25.270Z,40.00
2023-01-30T07:53:30.489Z,37.50
2023-01-30T07:54:33.089Z,36.00
2023-01-30T07:55:36.523Z,44.50
2023-01-30T07:56:45.479Z,51.00
2023-01-30T07:57:48.207Z,48.50
2023-01-30T07:58:56.247Z,50.50
2023-01-30T07:59:58.923Z,48.50
2023-01-30T08:01:01.626Z,51.00
2023-01-30T08:02:10.516Z,52.00
2023-01-30T08:03:21.606Z,51.50
2023-01-30T08:04:24.378Z,57.50
2023-01-30T08:05:29.467Z,60.25
2023-01-30T08:06:32.141Z,55.75
2023-01-30T08:07:41.512Z,48.50
2023-01-30T08:08:44.716Z,38.00
2023-01-30T08:09:47.359Z,33.75
2023-01-30T08:10:50.504Z,32.25
2023-01-30T08:11:55.825Z,33.50
2023-01-30T08:13:04.528Z,34.00
2023-01-30T08:14:07.374Z,34.00
2023-01-30T08:15:11.825Z,34.00
2023-01-30T08:16:14.817Z,36.00
2023-01-30T08:17:17.455Z,36.00
2023-01-30T08:18:26.563Z,36.00
2023-01-30T08:19:31.151Z,33.00
2023-01-30T08:20:35.946Z,30.00
2023-01-30T08:21:40.566Z,28.00
2023-01-30T08:22:43.193Z,28.00
2023-01-30T08:23:54.771Z,30.00
2023-01-30T08:24:57.470Z,29.25
2023-01-30T08:26:05.651Z,29.00
2023-01-30T08:27:14.033Z,28.00
2023-01-30T08:28:16.736Z,25.25
2023-01-30T08:29:25.548Z,25.50
2023-01-30T08:30:29.355Z,26.00
2023-01-30T08:31:32.176Z,26.00
2023-01-30T08:32:36.053Z,25.00
2023-01-30T08:33:38.845Z,23.00
2023-01-30T08:34:47.614Z,23.00
2023-01-30T08:35:50.442Z,24.00
2023-01-30T08:36:53.315Z,24.00
2023-01-30T08:37:55.958Z,23.00
2023-01-30T08:38:58.692Z,25.50
2023-01-30T08:40:07.587Z,24.00
2023-01-30T08:41:13.422Z,24.00
2023-01-30T08:42:16.083Z,23.00
2023-01-30T08:43:18.775Z,22.50
2023-01-30T08:44:21.461Z,22.75
2023-01-30T08:45:30.622Z,23.00
2023-01-30T08:46:41.947Z,22.50
2023-01-30T08:47:47.151Z,23.00
2023-01-30T08:48:50.515Z,23.00
2023-01-30T08:49:56.229Z,22.50
2023-01-30T08:51:05.601Z,22.25
2023-01-30T08:52:09.242Z,21.75
2023-01-30T08:53:16.073Z,22.00
2023-01-30T08:54:18.728Z,23.00
2023-01-30T08:55:22.124Z,23.00
2023-01-30T08:56:31.622Z,23.00
2023-01-30T08:57:35.970Z,23.00
2023-01-30T08:58:38.678Z,23.00
2023-01-30T08:59:41.662Z,23.00
2023-01-30T09:00:48.792Z,24.00
2023-01-30T09:01:57.648Z,24.00
2023-01-30T09:03:20.663Z,24.00
2023-01-30T09:04:28.518Z,24.00
2023-01-30T09:05:33.677Z,24.75
2023-01-30T09:06:36.336Z,26.00
2023-01-30T09:07:45.672Z,26.00
2023-01-30T09:08:51.080Z,25.25
2023-01-30T09:09:53.688Z,26.00
2023-01-30T09:11:05.084Z,26.50
2023-01-30T09:12:07.888Z,26.00
2023-01-30T09:13:17.669Z,28.25
2023-01-30T09:14:20.975Z,29.00
2023-01-30T09:15:23.679Z,28.00
2023-01-30T09:16:26.568Z,28.00
2023-01-30T09:17:29.248Z,30.00
2023-01-30T09:18:38.868Z,30.00
2023-01-30T09:19:47.815Z,29.50
2023-01-30T09:20:53.904Z,28.00
2023-01-30T09:21:57.164Z,26.50
2023-01-30T09:23:00.109Z,26.75
2023-01-30T09:24:09.680Z,25.00
2023-01-30T09:25:12.361Z,27.75
2023-01-30T09:26:15.036Z,29.75
2023-01-30T09:27:17.701Z,30.00
2023-01-30T09:28:20.314Z,29.00
2023-01-30T09:29:30.701Z,29.75
2023-01-30T09:30:34.722Z,30.00
2023-01-30T09:31:37.594Z,30.00
2023-01-30T09:32:40.258Z,30.00
2023-01-30T09:33:42.909Z,27.00
2023-01-30T09:34:51.735Z,24.00
2023-01-30T09:35:55.030Z,24.00
2023-01-30T09:37:03.695Z,25.50
2023-01-30T09:38:07.281Z,27.00
2023-01-30T09:39:10.314Z,28.00
2023-01-30T09:40:25.508Z,27.00
2023-01-30T09:41:46.964Z,25.00
2023-01-30T09:43:29.843Z,24.00
2023-01-30T09:45:10.860Z,23.00
2023-01-30T09:46:45.747Z,23.00
2023-01-30T09:47:55.459Z,22.75
2023-01-30T09:49:17.546Z,23.75
2023-01-30T09:50:46.360Z,26.00
2023-01-30T09:51:58.751Z,23.25
2023-01-30T09:53:22.371Z,25.25
2023-01-30T09:54:36.158Z,26.00
2023-01-30T09:55:43.629Z,25.00
2023-01-30T09:56:46.351Z,25.75
2023-01-30T09:57:56.754Z,24.00
2023-01-30T09:59:04.594Z,25.00
2023-01-30T10:00:13.968Z,25.25
2023-01-30T10:01:38.842Z,25.00
2023-01-30T10:03:15.763Z,24.00
2023-01-30T10:05:00.543Z,25.00
2023-01-30T10:06:12.370Z,25.50
2023-01-30T10:07:22.450Z,28.00
2023-01-30T10:08:34.740Z,26.00
2023-01-30T10:10:07.061Z,24.00
2023-01-30T10:11:20.433Z,24.25
2023-01-30T10:12:40.689Z,23.50
2023-01-30T10:14:08.765Z,23.00
2023-01-30T10:15:34.467Z,22.75
2023-01-30T10:16:55.431Z,23.00
2023-01-30T10:18:16.168Z,24.00
2023-01-30T10:19:49.792Z,23.00
2023-01-30T10:21:04.567Z,24.00
2023-01-30T10:22:32.743Z,25.00
2023-01-30T10:23:58.589Z,24.25
2023-01-30T10:25:26.796Z,24.00
2023-01-30T10:26:30.919Z,23.00
2023-01-30T10:27:38.970Z,23.75
2023-01-30T10:29:06.608Z,24.00
2023-01-30T10:30:23.977Z,23.00
2023-01-30T10:31:31.947Z,23.00
2023-01-30T10:32:44.527Z,24.00
2023-01-30T10:34:15.817Z,23.50
2023-01-30T10:35:22.931Z,23.00
2023-01-30T10:36:44.836Z,25.00
2023-01-30T10:38:11.099Z,24.00
2023-01-30T10:39:27.219Z,26.00
2023-01-30T10:40:37.130Z,24.50
2023-01-30T10:41:55.838Z,24.00
2023-01-30T10:43:31.041Z,24.25
2023-01-30T10:44:33.662Z,23.75
2023-01-30T10:46:06.823Z,24.00
2023-01-30T10:47:47.059Z,24.50
2023-01-30T10:48:53.265Z,24.75
2023-01-30T10:50:16.946Z,25.00
2023-01-30T10:51:24.907Z,26.50
2023-01-30T10:52:36.694Z,27.00
2023-01-30T10:53:53.849Z,27.25
2023-01-30T10:55:02.489Z,27.00
2023-01-30T10:56:21.717Z,24.00
2023-01-30T10:57:37.967Z,24.00
2023-01-30T10:59:18.844Z,25.25
2023-01-30T11:00:31.517Z,26.50
2023-01-30T11:01:48.225Z,27.00
2023-01-30T11:03:25.003Z,27.00
2023-01-30T11:05:32.900Z,28.00
2023-01-30T11:06:36.532Z,27.25
2023-01-30T11:07:39.347Z,26.00
2023-01-30T11:08:42.032Z,27.00
2023-01-30T11:09:49.786Z,26.75
2023-01-30T11:10:59.998Z,27.00
2023-01-30T11:12:02.798Z,26.00
2023-01-30T11:13:24.297Z,27.00
2023-01-30T11:14:28.079Z,26.00
2023-01-30T11:15:45.589Z,24.25
2023-01-30T11:17:02.928Z,24.00
2023-01-30T11:18:54.826Z,26.00
2023-01-30T11:19:35.405Z,24.75
2023-01-30T11:20:42.205Z,25.75
2023-01-30T11:21:52.892Z,24.50
2023-01-30T11:23:31.154Z,25.25
2023-01-30T11:24:43.425Z,24.00
2023-01-30T11:26:05.493Z,24.00
2023-01-30T11:27:19.037Z,24.50
2023-01-30T11:28:28.963Z,24.00
2023-01-30T11:29:34.310Z,24.50
2023-01-30T11:30:39.371Z,24.50
2023-01-30T11:31:44.136Z,25.00
2023-01-30T11:32:49.878Z,24.00
2023-01-30T11:34:12.903Z,24.75
2023-01-30T11:35:15.521Z,24.50
2023-01-30T11:36:32.952Z,23.00
2023-01-30T11:37:36.658Z,22.00
2023-01-30T11:39:11.309Z,23.25
2023-01-30T11:40:26.031Z,22.50
2023-01-30T11:41:40.033Z,22.00
2023-01-30T11:42:46.841Z,22.00
2023-01-30T11:43:55.953Z,23.00
2023-01-30T11:45:16.197Z,22.50
2023-01-30T11:46:21.845Z,22.00
2023-01-30T11:47:27.947Z,24.00
2023-01-30T11:49:32.225Z,22.00
2023-01-30T11:50:19.999Z,22.00
2023-01-30T11:51:27.043Z,22.00
2023-01-30T11:52:34.058Z,21.50
2023-01-30T11:53:41.618Z,22.00
2023-01-30T11:54:55.565Z,22.75
2023-01-30T11:56:09.082Z,22.00
2023-01-30T11:57:16.109Z,22.00
2023-01-30T11:58:20.373Z,22.00
2023-01-30T11:59:40.974Z,22.00
2023-01-30T12:00:48.496Z,22.00
2023-01-30T12:01:51.290Z,23.00
2023-01-30T12:03:02.125Z,22.00
2023-01-30T12:04:13.577Z,22.25
2023-01-30T12:05:47.988Z,29.00
2023-01-30T12:07:06.891Z,31.00
2023-01-30T12:08:31.086Z,34.00
2023-01-30T12:09:43.471Z,34.00
2023-01-30T12:10:59.573Z,29.50
2023-01-30T12:12:02.423Z,26.50
2023-01-30T12:13:17.473Z,26.50
2023-01-30T12:14:29.971Z,26.00
2023-01-30T12:15:34.926Z,28.50
2023-01-30T12:17:04.028Z,29.00
2023-01-30T12:18:20.876Z,27.00
2023-01-30T12:19:35.501Z,25.00
2023-01-30T12:20:56.110Z,25.00
2023-01-30T12:22:26.031Z,24.00
2023-01-30T12:23:42.312Z,25.00
2023-01-30T12:24:53.557Z,24.00
2023-01-30T12:25:56.166Z,24.00
2023-01-30T12:27:13.431Z,24.00
2023-01-30T12:28:39.118Z,23.00
2023-01-30T12:30:00.352Z,22.00
2023-01-30T12:31:11.383Z,22.00
2023-01-30T12:32:23.766Z,22.00
2023-01-30T12:33:30.982Z,21.00
2023-01-30T12:34:40.117Z,22.50
2023-01-30T12:35:53.727Z,20.00
2023-01-30T12:37:17.648Z,20.00
2023-01-30T12:38:26.683Z,20.00
2023-01-30T12:40:04.123Z,19.00
2023-01-30T12:41:38.770Z,20.25
2023-01-30T12:43:15.579Z,21.00
2023-01-30T12:44:50.925Z,19.00
2023-01-30T12:46:07.195Z,20.00
2023-01-30T12:47:24.629Z,21.25
2023-01-30T12:49:10.179Z,20.00
2023-01-30T12:50:28.111Z,19.00
2023-01-30T12:51:58.142Z,18.00
2023-01-30T12:53:24.436Z,22.00
2023-01-30T12:54:54.312Z,22.00
2023-01-30T12:56:30.137Z,22.00
2023-01-30T12:58:03.147Z,19.00
2023-01-30T12:59:24.046Z,18.50
2023-01-30T13:00:37.529Z,19.25
2023-01-30T13:02:19.176Z,19.25
2023-01-30T13:03:40.682Z,21.75
2023-01-30T13:05:23.166Z,22.00
2023-01-30T13:07:04.612Z,22.00
2023-01-30T13:08:22.163Z,21.50
2023-01-30T13:09:37.794Z,19.50
2023-01-30T13:10:45.956Z,18.00
2023-01-30T13:12:21.961Z,18.50
2023-01-30T13:13:43.238Z,17.00
2023-01-30T13:15:09.707Z,17.00
2023-01-30T13:16:41.169Z,18.25
2023-01-30T13:18:02.252Z,19.00
2023-01-30T13:19:20.941Z,20.50
2023-01-30T13:20:48.091Z,19.00
2023-01-30T13:22:05.317Z,18.00
2023-01-30T13:23:28.660Z,18.00
2023-01-30T13:25:03.344Z,20.00
2023-01-30T13:26:13.595Z,18.50
2023-01-30T13:27:22.909Z,19.00
2023-01-30T13:28:29.952Z,19.00
2023-01-30T13:29:38.127Z,19.25
2023-01-30T13:30:50.261Z,19.00
2023-01-30T13:32:00.445Z,17.00
2023-01-30T13:33:12.477Z,19.00
2023-01-30T13:34:27.448Z,19.00
2023-01-30T13:35:52.970Z,18.00
2023-01-30T13:37:14.576Z,19.00
2023-01-30T13:38:25.318Z,18.50
2023-01-30T13:39:42.616Z,19.00
2023-01-30T13:40:53.242Z,21.00
2023-01-30T13:41:58.208Z,22.00
2023-01-30T13:43:20.865Z,19.00
2023-01-30T13:44:31.917Z,18.00
2023-01-30T13:45:38.587Z,17.00
2023-01-30T13:46:48.266Z,17.75
2023-01-30T13:48:18.372Z,18.00
2023-01-30T13:49:56.155Z,18.75
2023-01-30T13:51:18.787Z,16.75
2023-01-30T13:52:33.303Z,18.50
2023-01-30T13:53:42.891Z,19.75
2023-01-30T13:55:05.572Z,19.00
2023-01-30T13:56:40.841Z,20.50
2023-01-30T13:58:09.285Z,21.50
2023-01-30T14:00:00.982Z,19.50
2023-01-30T14:01:04.183Z,18.75
2023-01-30T14:02:12.274Z,19.00
2023-01-30T14:03:39.267Z,22.50
2023-01-30T14:04:41.915Z,19.00
2023-01-30T14:05:56.435Z,18.00
2023-01-30T14:07:23.991Z,27.00
2023-01-30T14:08:47.305Z,24.25
2023-01-30T14:10:14.010Z,22.00
2023-01-30T14:11:48.357Z,18.00
2023-01-30T14:12:54.527Z,18.00
2023-01-30T14:14:33.296Z,16.00
2023-01-30T14:15:37.734Z,18.50
2023-01-30T14:16:46.853Z,23.25
2023-01-30T14:18:03.876Z,23.25
2023-01-30T14:19:43.841Z,20.75
2023-01-30T14:20:48.642Z,23.50
2023-01-30T14:21:56.936Z,29.75
2023-01-30T14:23:02.968Z,29.00
2023-01-30T14:24:06.767Z,25.25
2023-01-30T14:25:31.384Z,26.50
2023-01-30T14:26:50.596Z,25.00
2023-01-30T14:28:18.839Z,26.00
2023-01-30T14:29:41.101Z,29.00
2023-01-30T14:30:53.323Z,25.50
2023-01-30T14:31:58.634Z,23.00
2023-01-30T14:33:03.200Z,21.00
2023-01-30T14:34:39.863Z,18.00
2023-01-30T14:35:42.517Z,17.75
2023-01-30T14:36:55.345Z,19.00
2023-01-30T14:38:17.219Z,20.00
2023-01-30T14:39:41.971Z,19.00
2023-01-30T14:41:11.492Z,19.00
2023-01-30T14:42:45.484Z,22.00
2023-01-30T14:43:52.813Z,22.00
2023-01-30T14:45:03.741Z,23.75
2023-01-30T14:46:25.372Z,29.25
2023-01-30T14:47:37.915Z,26.00
2023-01-30T14:49:04.775Z,22.00
2023-01-30T14:50:22.314Z,21.75
2023-01-30T14:51:51.403Z,20.50
2023-01-30T14:52:57.489Z,23.25
2023-01-30T14:54:17.346Z,22.50
2023-01-30T14:55:30.468Z,21.00
2023-01-30T14:56:45.365Z,22.00
2023-01-30T14:58:00.848Z,19.25
2023-01-30T14:59:08.327Z,22.50
2023-01-30T15:00:21.854Z,22.50